sensor_id;sensor_type;location;lat;lon;timestamp;pressure;altitude;pressure_sealevel;temperature;humidity
36726;BME280;44936;52.086;5.150;2023-02-28T00:00:05;103789.59;;;1.77;100.00
36726;BME280;44936;52.086;5.150;2023-02-28T00:02:38;103791.66;;;1.91;100.00
36726;BME280;44936;52.086;5.150;2023-02-28T00:05:04;103784.94;;;1.93;100.00
36726;BME280;44936;52.086;5.150;2023-02-28T00:07:30;103800.75;;;1.96;100.00
36726;BME280;44936;52.086;5.150;2023-02-28T00:09:56;103803.72;;;2.01;100.00
36726;BME280;44936;52.086;5.150;2023-02-28T00:12:22;103795.81;;;2.10;100.00
36726;BME280;44936;52.086;5.150;2023-02-28T00:14:48;103799.97;;;2.08;100.00
36726;BME280;44936;52.086;5.150;2023-02-28T00:17:13;103802.56;;;2.18;100.00
36726;BME280;44936;52.086;5.150;2023-02-28T00:19:38;103804.66;;;2.22;100.00
36726;BME280;44936;52.086;5.150;2023-02-28T00:22:04;103810.59;;;2.31;100.00
36726;BME280;44936;52.086;5.150;2023-02-28T00:24:29;103806.94;;;2.29;100.00
36726;BME280;44936;52.086;5.150;2023-02-28T00:26:54;103831.66;;;2.46;100.00
36726;BME280;44936;52.086;5.150;2023-02-28T00:29:22;103830.28;;;2.39;100.00
36726;BME280;44936;52.086;5.150;2023-02-28T00:31:47;103831.66;;;2.46;100.00
36726;BME280;44936;52.086;5.150;2023-02-28T00:34:13;103835.94;;;2.55;100.00
36726;BME280;44936;52.086;5.150;2023-02-28T00:36:38;103839.72;;;2.59;100.00
36726;BME280;44936;52.086;5.150;2023-02-28T00:39:04;103840.34;;;2.67;100.00
36726;BME280;44936;52.086;5.150;2023-02-28T00:41:32;103834.88;;;2.74;100.00
36726;BME280;44936;52.086;5.150;2023-02-28T00:43:57;103830.47;;;2.73;100.00
36726;BME280;44936;52.086;5.150;2023-02-28T00:46:23;103838.88;;;2.80;100.00
36726;BME280;44936;52.086;5.150;2023-02-28T00:48:48;103845.75;;;2.80;100.00
36726;BME280;44936;52.086;5.150;2023-02-28T00:51:13;103838.25;;;2.83;100.00
36726;BME280;44936;52.086;5.150;2023-02-28T00:53:39;103830.72;;;2.86;100.00
36726;BME280;44936;52.086;5.150;2023-02-28T00:56:04;103831.47;;;2.95;100.00
36726;BME280;44936;52.086;5.150;2023-02-28T00:58:30;103834.00;;;3.05;100.00
36726;BME280;44936;52.086;5.150;2023-02-28T01:00:55;103825.22;;;3.03;100.00
36726;BME280;44936;52.086;5.150;2023-02-28T01:03:21;103810.47;;;2.92;100.00
36726;BME280;44936;52.086;5.150;2023-02-28T01:05:47;103837.63;;;3.07;100.00
36726;BME280;44936;52.086;5.150;2023-02-28T01:08:13;103833.50;;;2.99;100.00
36726;BME280;44936;52.086;5.150;2023-02-28T01:10:39;103847.25;;;2.98;100.00
36726;BME280;44936;52.086;5.150;2023-02-28T01:13:06;103800.53;;;2.76;100.00
36726;BME280;44936;52.086;5.150;2023-02-28T01:15:31;103814.34;;;2.97;100.00
36726;BME280;44936;52.086;5.150;2023-02-28T01:17:57;103824.78;;;3.09;100.00
36726;BME280;44936;52.086;5.150;2023-02-28T01:20:23;103828.72;;;3.04;100.00
36726;BME280;44936;52.086;5.150;2023-02-28T01:22:48;103816.25;;;3.10;100.00
36726;BME280;44936;52.086;5.150;2023-02-28T01:25:14;103829.84;;;3.07;100.00
36726;BME280;44936;52.086;5.150;2023-02-28T01:27:39;103852.63;;;3.22;100.00
36726;BME280;44936;52.086;5.150;2023-02-28T01:30:08;103844.47;;;3.27;100.00
36726;BME280;44936;52.086;5.150;2023-02-28T01:32:34;103819.59;;;3.09;100.00
36726;BME280;44936;52.086;5.150;2023-02-28T01:35:00;103834.63;;;3.13;100.00
36726;BME280;44936;52.086;5.150;2023-02-28T01:37:25;103828.28;;;3.20;100.00
36726;BME280;44936;52.086;5.150;2023-02-28T01:39:50;103832.78;;;3.22;100.00
36726;BME280;44936;52.086;5.150;2023-02-28T01:42:16;103818.91;;;3.22;100.00
36726;BME280;44936;52.086;5.150;2023-02-28T01:45:01;103826.66;;;3.32;100.00
36726;BME280;44936;52.086;5.150;2023-02-28T01:47:33;103825.63;;;3.30;100.00
36726;BME280;44936;52.086;5.150;2023-02-28T01:50:01;103827.78;;;3.35;100.00
36726;BME280;44936;52.086;5.150;2023-02-28T01:52:27;103800.53;;;3.19;100.00
36726;BME280;44936;52.086;5.150;2023-02-28T01:54:56;103824.84;;;3.31;100.00
36726;BME280;44936;52.086;5.150;2023-02-28T01:57:29;103825.13;;;3.24;100.00
36726;BME280;44936;52.086;5.150;2023-02-28T02:00:05;103825.06;;;3.34;100.00
36726;BME280;44936;52.086;5.150;2023-02-28T02:02:33;103802.00;;;3.27;100.00
36726;BME280;44936;52.086;5.150;2023-02-28T02:05:23;103833.84;;;3.46;100.00
36726;BME280;44936;52.086;5.150;2023-02-28T02:07:51;103830.34;;;3.46;100.00
36726;BME280;44936;52.086;5.150;2023-02-28T02:10:20;103827.22;;;3.50;100.00
36726;BME280;44936;52.086;5.150;2023-02-28T02:13:08;103817.13;;;3.42;100.00
36726;BME280;44936;52.086;5.150;2023-02-28T02:18:09;103796.47;;;3.44;100.00
36726;BME280;44936;52.086;5.150;2023-02-28T02:23:51;103771.31;;;3.43;100.00
36726;BME280;44936;52.086;5.150;2023-02-28T02:37:15;103795.47;;;3.42;100.00
36726;BME280;44936;52.086;5.150;2023-02-28T02:39:53;103791.44;;;3.46;100.00
36726;BME280;44936;52.086;5.150;2023-02-28T02:42:37;103809.28;;;3.53;100.00
36726;BME280;44936;52.086;5.150;2023-02-28T02:45:25;103822.41;;;3.54;100.00
36726;BME280;44936;52.086;5.150;2023-02-28T02:47:56;103802.41;;;3.53;100.00
36726;BME280;44936;52.086;5.150;2023-02-28T02:50:27;103812.75;;;3.63;100.00
36726;BME280;44936;52.086;5.150;2023-02-28T02:52:57;103818.84;;;3.64;100.00
36726;BME280;44936;52.086;5.150;2023-02-28T02:55:25;103827.41;;;3.63;100.00
36726;BME280;44936;52.086;5.150;2023-02-28T02:58:01;103814.06;;;3.58;100.00
36726;BME280;44936;52.086;5.150;2023-02-28T03:00:33;103783.22;;;3.51;100.00
36726;BME280;44936;52.086;5.150;2023-02-28T03:03:01;103788.91;;;3.57;100.00
36726;BME280;44936;52.086;5.150;2023-02-28T03:05:38;103796.25;;;3.63;100.00
36726;BME280;44936;52.086;5.150;2023-02-28T03:08:05;103810.06;;;3.74;100.00
36726;BME280;44936;52.086;5.150;2023-02-28T03:10:39;103829.50;;;3.79;100.00
36726;BME280;44936;52.086;5.150;2023-02-28T03:13:37;103824.44;;;3.80;100.00
36726;BME280;44936;52.086;5.150;2023-02-28T03:21:09;103783.94;;;3.82;100.00
36726;BME280;44936;52.086;5.150;2023-02-28T03:24:06;103783.81;;;3.81;100.00
36726;BME280;44936;52.086;5.150;2023-02-28T03:26:36;103787.06;;;3.78;100.00
36726;BME280;44936;52.086;5.150;2023-02-28T03:31:55;103792.63;;;3.83;100.00
36726;BME280;44936;52.086;5.150;2023-02-28T03:34:28;103765.16;;;3.75;100.00
36726;BME280;44936;52.086;5.150;2023-02-28T03:36:57;103728.63;;;3.61;100.00
36726;BME280;44936;52.086;5.150;2023-02-28T03:39:35;103746.16;;;3.64;100.00
36726;BME280;44936;52.086;5.150;2023-02-28T03:42:08;103788.09;;;3.80;100.00
36726;BME280;44936;52.086;5.150;2023-02-28T03:50:23;103804.25;;;3.88;100.00
36726;BME280;44936;52.086;5.150;2023-02-28T03:53:01;103793.41;;;3.82;100.00
36726;BME280;44936;52.086;5.150;2023-02-28T03:55:34;103800.16;;;3.80;100.00
36726;BME280;44936;52.086;5.150;2023-02-28T03:58:08;103790.56;;;3.79;100.00
36726;BME280;44936;52.086;5.150;2023-02-28T04:00:40;103802.63;;;3.78;100.00
36726;BME280;44936;52.086;5.150;2023-02-28T04:03:08;103798.53;;;3.70;100.00
36726;BME280;44936;52.086;5.150;2023-02-28T04:05:54;103803.53;;;3.79;100.00
36726;BME280;44936;52.086;5.150;2023-02-28T04:08:21;103797.81;;;3.83;100.00
36726;BME280;44936;52.086;5.150;2023-02-28T04:10:53;103782.19;;;3.71;100.00
36726;BME280;44936;52.086;5.150;2023-02-28T04:13:20;103776.03;;;3.59;100.00
36726;BME280;44936;52.086;5.150;2023-02-28T04:15:45;103779.78;;;3.62;100.00
36726;BME280;44936;52.086;5.150;2023-02-28T04:18:10;103801.81;;;3.67;100.00
36726;BME280;44936;52.086;5.150;2023-02-28T04:20:36;103804.41;;;3.67;100.00
36726;BME280;44936;52.086;5.150;2023-02-28T04:23:01;103795.72;;;3.67;100.00
36726;BME280;44936;52.086;5.150;2023-02-28T04:25:26;103793.91;;;3.66;100.00
36726;BME280;44936;52.086;5.150;2023-02-28T04:27:52;103766.06;;;3.53;100.00
36726;BME280;44936;52.086;5.150;2023-02-28T04:30:17;103765.34;;;3.44;100.00
36726;BME280;44936;52.086;5.150;2023-02-28T04:32:42;103768.44;;;3.50;100.00
36726;BME280;44936;52.086;5.150;2023-02-28T04:35:08;103793.66;;;3.63;100.00
36726;BME280;44936;52.086;5.150;2023-02-28T04:37:33;103737.16;;;3.27;100.00
36726;BME280;44936;52.086;5.150;2023-02-28T04:40:00;103792.75;;;3.62;100.00
36726;BME280;44936;52.086;5.150;2023-02-28T04:42:26;103778.03;;;3.51;100.00
36726;BME280;44936;52.086;5.150;2023-02-28T04:44:51;103784.84;;;3.61;100.00
36726;BME280;44936;52.086;5.150;2023-02-28T04:47:17;103743.94;;;3.25;100.00
36726;BME280;44936;52.086;5.150;2023-02-28T04:49:42;103749.19;;;3.36;100.00
36726;BME280;44936;52.086;5.150;2023-02-28T04:52:08;103755.28;;;3.37;100.00
36726;BME280;44936;52.086;5.150;2023-02-28T04:54:35;103752.63;;;3.47;100.00
36726;BME280;44936;52.086;5.150;2023-02-28T04:57:00;103751.84;;;3.48;100.00
36726;BME280;44936;52.086;5.150;2023-02-28T04:59:26;103755.91;;;3.45;100.00
36726;BME280;44936;52.086;5.150;2023-02-28T05:01:51;103753.66;;;3.49;100.00
36726;BME280;44936;52.086;5.150;2023-02-28T05:04:17;103722.09;;;3.33;100.00
36726;BME280;44936;52.086;5.150;2023-02-28T05:06:42;103740.75;;;3.39;100.00
36726;BME280;44936;52.086;5.150;2023-02-28T05:09:08;103745.81;;;3.37;100.00
36726;BME280;44936;52.086;5.150;2023-02-28T05:11:34;103715.06;;;3.20;100.00
36726;BME280;44936;52.086;5.150;2023-02-28T05:14:09;103719.28;;;3.30;100.00
36726;BME280;44936;52.086;5.150;2023-02-28T05:16:35;103682.03;;;3.07;100.00
36726;BME280;44936;52.086;5.150;2023-02-28T05:19:01;103718.47;;;3.31;100.00
36726;BME280;44936;52.086;5.150;2023-02-28T05:21:29;103711.59;;;3.31;100.00
36726;BME280;44936;52.086;5.150;2023-02-28T05:23:58;103658.53;;;2.94;100.00
36726;BME280;44936;52.086;5.150;2023-02-28T05:26:24;103721.59;;;3.27;100.00
36726;BME280;44936;52.086;5.150;2023-02-28T05:28:50;103694.88;;;3.06;100.00
36726;BME280;44936;52.086;5.150;2023-02-28T05:31:15;103706.47;;;3.21;100.00
36726;BME280;44936;52.086;5.150;2023-02-28T05:33:41;103733.25;;;3.32;100.00
36726;BME280;44936;52.086;5.150;2023-02-28T05:36:07;103718.84;;;3.13;100.00
36726;BME280;44936;52.086;5.150;2023-02-28T05:38:32;103714.44;;;3.12;100.00
36726;BME280;44936;52.086;5.150;2023-02-28T05:40:58;103708.81;;;2.96;100.00
36726;BME280;44936;52.086;5.150;2023-02-28T05:43:23;103720.47;;;3.01;100.00
36726;BME280;44936;52.086;5.150;2023-02-28T05:45:49;103714.84;;;2.85;100.00
36726;BME280;44936;52.086;5.150;2023-02-28T05:48:14;103739.81;;;2.95;100.00
36726;BME280;44936;52.086;5.150;2023-02-28T05:50:39;103760.66;;;2.96;100.00
36726;BME280;44936;52.086;5.150;2023-02-28T05:53:05;103756.22;;;2.73;100.00
36726;BME280;44936;52.086;5.150;2023-02-28T05:55:31;103778.31;;;2.90;100.00
36726;BME280;44936;52.086;5.150;2023-02-28T05:57:56;103777.56;;;2.81;100.00
36726;BME280;44936;52.086;5.150;2023-02-28T06:00:22;103798.03;;;2.88;100.00
36726;BME280;44936;52.086;5.150;2023-02-28T06:02:48;103822.16;;;2.87;100.00
36726;BME280;44936;52.086;5.150;2023-02-28T06:05:16;103817.03;;;2.67;100.00
36726;BME280;44936;52.086;5.150;2023-02-28T06:07:42;103821.69;;;2.61;100.00
36726;BME280;44936;52.086;5.150;2023-02-28T06:10:09;103833.63;;;2.38;100.00
36726;BME280;44936;52.086;5.150;2023-02-28T06:12:34;103840.13;;;2.33;100.00
36726;BME280;44936;52.086;5.150;2023-02-28T06:14:59;103846.56;;;2.28;100.00
36726;BME280;44936;52.086;5.150;2023-02-28T06:17:25;103837.38;;;2.01;100.00
36726;BME280;44936;52.086;5.150;2023-02-28T06:19:50;103845.25;;;2.03;100.00
36726;BME280;44936;52.086;5.150;2023-02-28T06:22:15;103848.63;;;2.02;100.00
36726;BME280;44936;52.086;5.150;2023-02-28T06:24:41;103837.59;;;1.94;100.00
36726;BME280;44936;52.086;5.150;2023-02-28T06:27:06;103832.59;;;1.95;100.00
36726;BME280;44936;52.086;5.150;2023-02-28T06:29:33;103812.91;;;1.97;100.00
36726;BME280;44936;52.086;5.150;2023-02-28T06:31:59;103810.81;;;1.83;100.00
36726;BME280;44936;52.086;5.150;2023-02-28T06:34:24;103808.50;;;1.86;100.00
36726;BME280;44936;52.086;5.150;2023-02-28T06:36:50;103790.00;;;1.92;100.00
36726;BME280;44936;52.086;5.150;2023-02-28T06:39:16;103778.34;;;1.87;100.00
36726;BME280;44936;52.086;5.150;2023-02-28T06:41:41;103770.44;;;1.85;100.00
36726;BME280;44936;52.086;5.150;2023-02-28T06:44:15;103752.31;;;1.85;100.00
36726;BME280;44936;52.086;5.150;2023-02-28T06:46:41;103733.16;;;1.93;100.00
36726;BME280;44936;52.086;5.150;2023-02-28T06:49:07;103704.69;;;1.93;100.00
36726;BME280;44936;52.086;5.150;2023-02-28T06:51:38;103680.66;;;1.94;100.00
36726;BME280;44936;52.086;5.150;2023-02-28T06:54:04;103671.19;;;2.05;100.00
36726;BME280;44936;52.086;5.150;2023-02-28T06:56:29;103656.28;;;2.03;100.00
36726;BME280;44936;52.086;5.150;2023-02-28T06:58:54;103641.78;;;2.15;100.00
36726;BME280;44936;52.086;5.150;2023-02-28T07:01:21;103629.56;;;2.24;100.00
36726;BME280;44936;52.086;5.150;2023-02-28T07:03:50;103613.81;;;2.21;100.00
36726;BME280;44936;52.086;5.150;2023-02-28T07:06:22;103613.09;;;2.34;100.00
36726;BME280;44936;52.086;5.150;2023-02-28T07:08:48;103600.25;;;2.35;100.00
36726;BME280;44936;52.086;5.150;2023-02-28T07:11:14;103604.31;;;2.53;100.00
36726;BME280;44936;52.086;5.150;2023-02-28T07:13:39;103563.66;;;2.31;100.00
36726;BME280;44936;52.086;5.150;2023-02-28T07:16:06;103599.25;;;2.55;100.00
36726;BME280;44936;52.086;5.150;2023-02-28T07:18:34;103620.78;;;2.76;100.00
36726;BME280;44936;52.086;5.150;2023-02-28T07:21:04;103633.59;;;2.84;100.00
36726;BME280;44936;52.086;5.150;2023-02-28T07:23:30;103636.47;;;2.77;100.00
36726;BME280;44936;52.086;5.150;2023-02-28T07:25:56;103625.88;;;2.74;100.00
36726;BME280;44936;52.086;5.150;2023-02-28T07:28:21;103646.72;;;2.98;100.00
36726;BME280;44936;52.086;5.150;2023-02-28T07:30:47;103643.22;;;2.97;100.00
36726;BME280;44936;52.086;5.150;2023-02-28T07:33:13;103640.50;;;2.96;100.00
36726;BME280;44936;52.086;5.150;2023-02-28T07:35:39;103657.88;;;2.97;100.00
36726;BME280;44936;52.086;5.150;2023-02-28T07:38:04;103694.41;;;3.00;100.00
36726;BME280;44936;52.086;5.150;2023-02-28T07:40:30;103721.72;;;3.06;100.00
36726;BME280;44936;52.086;5.150;2023-02-28T07:42:56;103718.50;;;2.99;100.00
36726;BME280;44936;52.086;5.150;2023-02-28T07:45:21;103735.41;;;2.94;100.00
36726;BME280;44936;52.086;5.150;2023-02-28T07:47:47;103747.25;;;3.12;100.00
36726;BME280;44936;52.086;5.150;2023-02-28T07:50:15;103759.19;;;3.10;100.00
36726;BME280;44936;52.086;5.150;2023-02-28T07:52:40;103776.88;;;3.26;100.00
36726;BME280;44936;52.086;5.150;2023-02-28T07:55:07;103782.19;;;3.27;100.00
36726;BME280;44936;52.086;5.150;2023-02-28T07:57:33;103772.16;;;3.32;100.00
36726;BME280;44936;52.086;5.150;2023-02-28T07:59:58;103782.03;;;3.36;100.00
36726;BME280;44936;52.086;5.150;2023-02-28T08:02:24;103748.31;;;3.26;100.00
36726;BME280;44936;52.086;5.150;2023-02-28T08:04:49;103709.38;;;3.14;100.00
36726;BME280;44936;52.086;5.150;2023-02-28T08:07:16;103755.75;;;3.43;100.00
36726;BME280;44936;52.086;5.150;2023-02-28T08:09:42;103727.53;;;3.36;100.00
36726;BME280;44936;52.086;5.150;2023-02-28T08:12:08;103723.09;;;3.35;100.00
36726;BME280;44936;52.086;5.150;2023-02-28T08:14:34;103748.47;;;3.49;100.00
36726;BME280;44936;52.086;5.150;2023-02-28T08:17:00;103767.41;;;3.48;100.00
36726;BME280;44936;52.086;5.150;2023-02-28T08:19:25;103774.25;;;3.36;100.00
36726;BME280;44936;52.086;5.150;2023-02-28T08:21:50;103811.13;;;3.54;100.00
36726;BME280;44936;52.086;5.150;2023-02-28T08:24:16;103829.13;;;3.52;100.00
36726;BME280;44936;52.086;5.150;2023-02-28T08:26:41;103809.94;;;3.50;100.00
36726;BME280;44936;52.086;5.150;2023-02-28T08:29:07;103803.78;;;3.60;100.00
36726;BME280;44936;52.086;5.150;2023-02-28T08:31:32;103835.94;;;3.62;100.00
36726;BME280;44936;52.086;5.150;2023-02-28T08:33:57;103835.97;;;3.84;100.00
36726;BME280;44936;52.086;5.150;2023-02-28T08:36:25;103830.88;;;3.85;100.00
36726;BME280;44936;52.086;5.150;2023-02-28T08:38:53;103857.94;;;3.99;100.00
36726;BME280;44936;52.086;5.150;2023-02-28T08:41:18;103818.19;;;4.00;100.00
36726;BME280;44936;52.086;5.150;2023-02-28T08:43:44;103845.50;;;4.29;100.00
36726;BME280;44936;52.086;5.150;2023-02-28T08:46:12;103847.09;;;4.05;100.00
36726;BME280;44936;52.086;5.150;2023-02-28T08:48:38;103835.03;;;4.05;100.00
36726;BME280;44936;52.086;5.150;2023-02-28T08:51:10;103844.78;;;4.19;100.00
36726;BME280;44936;52.086;5.150;2023-02-28T08:53:36;103808.81;;;4.02;100.00
36726;BME280;44936;52.086;5.150;2023-02-28T08:56:05;103828.19;;;4.17;100.00
36726;BME280;44936;52.086;5.150;2023-02-28T08:58:30;103803.44;;;4.11;100.00
36726;BME280;44936;52.086;5.150;2023-02-28T09:00:56;103820.41;;;4.17;100.00
36726;BME280;44936;52.086;5.150;2023-02-28T09:03:22;103831.94;;;4.33;100.00
36726;BME280;44936;52.086;5.150;2023-02-28T09:05:59;103796.63;;;4.01;100.00
36726;BME280;44936;52.086;5.150;2023-02-28T09:08:25;103794.63;;;4.09;100.00
36726;BME280;44936;52.086;5.150;2023-02-28T09:10:51;103784.97;;;3.96;100.00
36726;BME280;44936;52.086;5.150;2023-02-28T09:13:18;103804.81;;;4.17;100.00
36726;BME280;44936;52.086;5.150;2023-02-28T09:15:44;103796.06;;;4.05;100.00
36726;BME280;44936;52.086;5.150;2023-02-28T09:18:09;103807.72;;;4.10;100.00
36726;BME280;44936;52.086;5.150;2023-02-28T09:20:39;103804.06;;;3.96;100.00
36726;BME280;44936;52.086;5.150;2023-02-28T09:23:06;103784.75;;;3.93;100.00
36726;BME280;44936;52.086;5.150;2023-02-28T09:25:32;103775.94;;;3.91;100.00
36726;BME280;44936;52.086;5.150;2023-02-28T09:27:57;103763.19;;;3.94;100.00
36726;BME280;44936;52.086;5.150;2023-02-28T09:30:23;103743.03;;;3.80;100.00
36726;BME280;44936;52.086;5.150;2023-02-28T09:32:48;103778.75;;;3.94;100.00
36726;BME280;44936;52.086;5.150;2023-02-28T09:35:23;103774.28;;;4.03;100.00
36726;BME280;44936;52.086;5.150;2023-02-28T09:37:50;103742.19;;;3.91;100.00
36726;BME280;44936;52.086;5.150;2023-02-28T09:40:21;103760.09;;;4.21;100.00
36726;BME280;44936;52.086;5.150;2023-02-28T09:42:49;103754.09;;;4.22;100.00
36726;BME280;44936;52.086;5.150;2023-02-28T09:45:23;103756.63;;;4.44;100.00
36726;BME280;44936;52.086;5.150;2023-02-28T09:47:50;103731.41;;;4.55;100.00
36726;BME280;44936;52.086;5.150;2023-02-28T09:52:52;103714.00;;;4.77;100.00
36726;BME280;44936;52.086;5.150;2023-02-28T09:55:25;103720.41;;;4.94;100.00
36726;BME280;44936;52.086;5.150;2023-02-28T09:57:54;103692.88;;;4.61;100.00
36726;BME280;44936;52.086;5.150;2023-02-28T10:03:42;103684.25;;;4.74;100.00
36726;BME280;44936;52.086;5.150;2023-02-28T10:05:50;103668.50;;;4.96;100.00
36726;BME280;44936;52.086;5.150;2023-02-28T10:09:01;103661.56;;;5.08;100.00
36726;BME280;44936;52.086;5.150;2023-02-28T10:11:27;103655.09;;;5.15;100.00
36726;BME280;44936;52.086;5.150;2023-02-28T10:14:17;103638.00;;;5.18;100.00
36726;BME280;44936;52.086;5.150;2023-02-28T10:16:50;103621.38;;;5.16;100.00
36726;BME280;44936;52.086;5.150;2023-02-28T10:22:22;103583.84;;;4.88;100.00
36726;BME280;44936;52.086;5.150;2023-02-28T10:24:53;103608.56;;;5.19;100.00
36726;BME280;44936;52.086;5.150;2023-02-28T10:27:29;103611.75;;;5.40;100.00
36726;BME280;44936;52.086;5.150;2023-02-28T10:29:59;103578.78;;;5.02;100.00
36726;BME280;44936;52.086;5.150;2023-02-28T10:32:35;103592.78;;;5.29;100.00
36726;BME280;44936;52.086;5.150;2023-02-28T10:35:27;103548.94;;;5.22;100.00
36726;BME280;44936;52.086;5.150;2023-02-28T10:37:58;103547.97;;;5.33;100.00
36726;BME280;44936;52.086;5.150;2023-02-28T10:43:05;103550.72;;;5.48;100.00
36726;BME280;44936;52.086;5.150;2023-02-28T10:45:33;103544.38;;;5.31;100.00
36726;BME280;44936;52.086;5.150;2023-02-28T11:07:03;103591.28;;;4.95;100.00
36726;BME280;44936;52.086;5.150;2023-02-28T11:09:38;103556.03;;;4.87;100.00
36726;BME280;44936;52.086;5.150;2023-02-28T11:12:06;103569.69;;;4.96;100.00
36726;BME280;44936;52.086;5.150;2023-02-28T11:14:56;103567.44;;;4.89;100.00
36726;BME280;44936;52.086;5.150;2023-02-28T11:17:25;103570.31;;;4.80;100.00
36726;BME280;44936;52.086;5.150;2023-02-28T11:19:55;103559.00;;;4.68;100.00
36726;BME280;44936;52.086;5.150;2023-02-28T11:22:29;103536.56;;;4.68;100.00
36726;BME280;44936;52.086;5.150;2023-02-28T11:24:59;103498.00;;;4.38;100.00
36726;BME280;44936;52.086;5.150;2023-02-28T11:29:59;103510.28;;;4.52;100.00
36726;BME280;44936;52.086;5.150;2023-02-28T11:32:27;103522.88;;;4.59;100.00
36726;BME280;44936;52.086;5.150;2023-02-28T11:35:03;103523.47;;;4.55;100.00
36726;BME280;44936;52.086;5.150;2023-02-28T11:37:30;103492.72;;;4.61;100.00
36726;BME280;44936;52.086;5.150;2023-02-28T11:39:56;103514.50;;;4.63;100.00
36726;BME280;44936;52.086;5.150;2023-02-28T11:42:57;103511.59;;;4.59;100.00
36726;BME280;44936;52.086;5.150;2023-02-28T11:45:34;103502.63;;;4.67;100.00
36726;BME280;44936;52.086;5.150;2023-02-28T11:54:01;103481.28;;;4.59;100.00
36726;BME280;44936;52.086;5.150;2023-02-28T12:07:51;103488.00;;;4.94;100.00
36726;BME280;44936;52.086;5.150;2023-02-28T12:13:18;103454.00;;;4.91;100.00
36726;BME280;44936;52.086;5.150;2023-02-28T12:21:40;103492.59;;;5.23;100.00
36726;BME280;44936;52.086;5.150;2023-02-28T12:27:02;103423.84;;;5.19;100.00
36726;BME280;44936;52.086;5.150;2023-02-28T12:29:43;103445.78;;;5.23;100.00
36726;BME280;44936;52.086;5.150;2023-02-28T12:32:22;103418.91;;;5.10;100.00
36726;BME280;44936;52.086;5.150;2023-02-28T12:35:03;103447.06;;;5.29;100.00
36726;BME280;44936;52.086;5.150;2023-02-28T12:37:55;103435.88;;;5.30;100.00
36726;BME280;44936;52.086;5.150;2023-02-28T12:40:23;103453.47;;;5.34;100.00
36726;BME280;44936;52.086;5.150;2023-02-28T12:42:56;103439.56;;;5.34;100.00
36726;BME280;44936;52.086;5.150;2023-02-28T12:45:26;103439.16;;;5.54;100.00
36726;BME280;44936;52.086;5.150;2023-02-28T12:47:57;103429.16;;;5.34;100.00
36726;BME280;44936;52.086;5.150;2023-02-28T12:50:24;103385.22;;;5.25;100.00
36726;BME280;44936;52.086;5.150;2023-02-28T12:53:06;103398.13;;;5.50;100.00
36726;BME280;44936;52.086;5.150;2023-02-28T12:55:42;103425.34;;;5.55;100.00
36726;BME280;44936;52.086;5.150;2023-02-28T13:00:55;103416.72;;;5.56;100.00
36726;BME280;44936;52.086;5.150;2023-02-28T13:04:05;103373.97;;;5.53;100.00
36726;BME280;44936;52.086;5.150;2023-02-28T13:06:49;103370.56;;;5.54;100.00
36726;BME280;44936;52.086;5.150;2023-02-28T13:09:20;103362.75;;;5.54;100.00
36726;BME280;44936;52.086;5.150;2023-02-28T13:11:54;103367.06;;;5.66;100.00
36726;BME280;44936;52.086;5.150;2023-02-28T13:19:31;103355.84;;;5.54;100.00
36726;BME280;44936;52.086;5.150;2023-02-28T13:21:58;103348.63;;;5.63;100.00
36726;BME280;44936;52.086;5.150;2023-02-28T13:24:42;103351.22;;;5.63;100.00
36726;BME280;44936;52.086;5.150;2023-02-28T13:29:35;103354.84;;;5.65;100.00
36726;BME280;44936;52.086;5.150;2023-02-28T13:34:32;103375.72;;;5.80;100.00
36726;BME280;44936;52.086;5.150;2023-02-28T13:47:42;103312.25;;;5.65;100.00
36726;BME280;44936;52.086;5.150;2023-02-28T13:50:21;103364.09;;;5.88;100.00
36726;BME280;44936;52.086;5.150;2023-02-28T13:56:19;103340.47;;;5.85;100.00
36726;BME280;44936;52.086;5.150;2023-02-28T13:58:54;103344.47;;;5.80;100.00
36726;BME280;44936;52.086;5.150;2023-02-28T14:01:39;103320.13;;;5.80;100.00
36726;BME280;44936;52.086;5.150;2023-02-28T14:06:38;103352.69;;;5.86;100.00
36726;BME280;44936;52.086;5.150;2023-02-28T14:11:39;103319.63;;;5.85;100.00
36726;BME280;44936;52.086;5.150;2023-02-28T14:14:06;103283.91;;;5.69;100.00
36726;BME280;44936;52.086;5.150;2023-02-28T14:16:47;103307.94;;;5.79;100.00
36726;BME280;44936;52.086;5.150;2023-02-28T14:19:23;103320.53;;;5.86;100.00
36726;BME280;44936;52.086;5.150;2023-02-28T14:36:47;103280.34;;;5.82;100.00
36726;BME280;44936;52.086;5.150;2023-02-28T14:39:14;103272.28;;;5.78;100.00
36726;BME280;44936;52.086;5.150;2023-02-28T14:41:41;103259.50;;;5.82;100.00
36726;BME280;44936;52.086;5.150;2023-02-28T14:46:42;103277.97;;;5.85;100.00
36726;BME280;44936;52.086;5.150;2023-02-28T14:49:18;103291.25;;;5.90;100.00
36726;BME280;44936;52.086;5.150;2023-02-28T14:51:44;103298.59;;;5.95;100.00
36726;BME280;44936;52.086;5.150;2023-02-28T14:54:14;103308.81;;;5.92;100.00
36726;BME280;44936;52.086;5.150;2023-02-28T14:56:40;103262.13;;;5.82;100.00
36726;BME280;44936;52.086;5.150;2023-02-28T14:59:23;103289.06;;;5.96;100.00
36726;BME280;44936;52.086;5.150;2023-02-28T15:01:49;103311.59;;;5.95;100.00
36726;BME280;44936;52.086;5.150;2023-02-28T15:04:22;103321.38;;;6.00;100.00
36726;BME280;44936;52.086;5.150;2023-02-28T15:07:10;103311.88;;;6.00;100.00
36726;BME280;44936;52.086;5.150;2023-02-28T15:09:36;103302.09;;;5.96;100.00
36726;BME280;44936;52.086;5.150;2023-02-28T15:12:02;103317.19;;;6.02;100.00
36726;BME280;44936;52.086;5.150;2023-02-28T15:14:27;103305.97;;;6.03;100.00
36726;BME280;44936;52.086;5.150;2023-02-28T15:17:02;103302.34;;;6.01;100.00
36726;BME280;44936;52.086;5.150;2023-02-28T15:19:39;103291.06;;;5.87;100.00
36726;BME280;44936;52.086;5.150;2023-02-28T15:22:12;103285.81;;;6.00;100.00